sensor_id;sensor_type;location;lat;lon;timestamp;P1;durP1;ratioP1;P2;durP2;ratioP2
63953;SDS011;50128;52.094;5.232;2022-12-18T00:01:00;88.9;;;56.9;;
63953;SDS011;50128;52.094;5.232;2022-12-18T00:02:36;95.7;;;58.8;;
63953;SDS011;50128;52.094;5.232;2022-12-18T00:05:58;87.0;;;56.2;;
63953;SDS011;50128;52.094;5.232;2022-12-18T00:07:35;90.7;;;57.3;;
63953;SDS011;50128;52.094;5.232;2022-12-18T00:09:12;96.9;;;58.5;;
63953;SDS011;50128;52.094;5.232;2022-12-18T00:12:24;91.2;;;57.4;;
63953;SDS011;50128;52.094;5.232;2022-12-18T00:14:00;78.2;;;51.3;;
63953;SDS011;50128;52.094;5.232;2022-12-18T00:15:37;75.0;;;49.5;;
63953;SDS011;50128;52.094;5.232;2022-12-18T00:17:14;77.5;;;51.8;;
63953;SDS011;50128;52.094;5.232;2022-12-18T00:20:31;82.6;;;53.4;;
63953;SDS011;50128;52.094;5.232;2022-12-18T00:22:12;83.8;;;53.4;;
63953;SDS011;50128;52.094;5.232;2022-12-18T00:23:48;75.61;;;50.6;;
63953;SDS011;50128;52.094;5.232;2022-12-18T00:27:03;72.41;;;49.4;;
63953;SDS011;50128;52.094;5.232;2022-12-18T00:28:39;78.41;;;51.6;;
63953;SDS011;50128;52.094;5.232;2022-12-18T00:30:15;79.41;;;52.1;;
63953;SDS011;50128;52.094;5.232;2022-12-18T00:31:52;73.8;;;49.5;;
63953;SDS011;50128;52.094;5.232;2022-12-18T00:35:06;95.5;;;57.2;;
63953;SDS011;50128;52.094;5.232;2022-12-18T00:36:43;73.91;;;50.1;;
63953;SDS011;50128;52.094;5.232;2022-12-18T00:38:19;83.6;;;52.8;;
63953;SDS011;50128;52.094;5.232;2022-12-18T00:41:31;89.0;;;55.7;;
63953;SDS011;50128;52.094;5.232;2022-12-18T00:43:08;74.3;;;50.0;;
63953;SDS011;50128;52.094;5.232;2022-12-18T00:44:44;79.7;;;52.0;;
63953;SDS011;50128;52.094;5.232;2022-12-18T00:47:57;84.6;;;53.6;;
63953;SDS011;50128;52.094;5.232;2022-12-18T00:49:33;88.7;;;56.1;;
63953;SDS011;50128;52.094;5.232;2022-12-18T00:51:09;80.2;;;52.5;;
63953;SDS011;50128;52.094;5.232;2022-12-18T00:52:45;74.11;;;50.1;;
63953;SDS011;50128;52.094;5.232;2022-12-18T00:55:59;85.1;;;54.9;;
63953;SDS011;50128;52.094;5.232;2022-12-18T00:57:35;82.3;;;54.0;;
63953;SDS011;50128;52.094;5.232;2022-12-18T01:00:47;80.5;;;52.6;;
63953;SDS011;50128;52.094;5.232;2022-12-18T01:02:24;86.6;;;53.5;;
63953;SDS011;50128;52.094;5.232;2022-12-18T01:04:00;76.3;;;50.4;;
63953;SDS011;50128;52.094;5.232;2022-12-18T01:05:38;81.3;;;52.9;;
63953;SDS011;50128;52.094;5.232;2022-12-18T01:08:51;86.9;;;55.2;;
63953;SDS011;50128;52.094;5.232;2022-12-18T01:10:27;83.1;;;53.4;;
63953;SDS011;50128;52.094;5.232;2022-12-18T01:12:04;84.7;;;53.7;;
63953;SDS011;50128;52.094;5.232;2022-12-18T01:13:41;85.4;;;53.6;;
63953;SDS011;50128;52.094;5.232;2022-12-18T01:16:55;89.3;;;55.9;;
63953;SDS011;50128;52.094;5.232;2022-12-18T01:18:31;93.2;;;59.0;;
63953;SDS011;50128;52.094;5.232;2022-12-18T01:20:08;90.0;;;57.1;;
63953;SDS011;50128;52.094;5.232;2022-12-18T01:23:23;92.9;;;58.2;;
63953;SDS011;50128;52.094;5.232;2022-12-18T01:25:03;82.3;;;54.1;;
63953;SDS011;50128;52.094;5.232;2022-12-18T01:26:40;83.5;;;56.0;;
63953;SDS011;50128;52.094;5.232;2022-12-18T01:29:53;84.8;;;53.6;;
63953;SDS011;50128;52.094;5.232;2022-12-18T01:31:31;86.1;;;55.3;;
63953;SDS011;50128;52.094;5.232;2022-12-18T01:33:09;89.2;;;56.3;;
63953;SDS011;50128;52.094;5.232;2022-12-18T01:34:45;85.1;;;55.2;;
63953;SDS011;50128;52.094;5.232;2022-12-18T01:38:00;92.7;;;57.1;;
63953;SDS011;50128;52.094;5.232;2022-12-18T01:39:37;84.4;;;54.8;;
63953;SDS011;50128;52.094;5.232;2022-12-18T01:41:18;97.2;;;58.7;;
63953;SDS011;50128;52.094;5.232;2022-12-18T01:45:00;86.2;;;54.4;;
63953;SDS011;50128;52.094;5.232;2022-12-18T01:46:56;84.0;;;54.5;;
63953;SDS011;50128;52.094;5.232;2022-12-18T01:48:33;90.1;;;54.7;;
63953;SDS011;50128;52.094;5.232;2022-12-18T01:50:10;89.6;;;56.4;;
63953;SDS011;50128;52.094;5.232;2022-12-18T01:51:50;80.61;;;53.2;;
63953;SDS011;50128;52.094;5.232;2022-12-18T01:53:27;83.9;;;53.1;;
63953;SDS011;50128;52.094;5.232;2022-12-18T01:56:42;77.5;;;51.0;;
63953;SDS011;50128;52.094;5.232;2022-12-18T01:58:18;85.4;;;53.5;;
63953;SDS011;50128;52.094;5.232;2022-12-18T01:59:59;82.4;;;53.6;;
63953;SDS011;50128;52.094;5.232;2022-12-18T02:03:19;84.8;;;54.0;;
63953;SDS011;50128;52.094;5.232;2022-12-18T02:04:56;84.8;;;53.8;;
63953;SDS011;50128;52.094;5.232;2022-12-18T02:06:33;79.11;;;52.0;;
63953;SDS011;50128;52.094;5.232;2022-12-18T02:08:16;79.11;;;52.0;;
63953;SDS011;50128;52.094;5.232;2022-12-18T02:11:47;83.4;;;54.0;;
63953;SDS011;50128;52.094;5.232;2022-12-18T02:13:32;83.8;;;53.5;;
63953;SDS011;50128;52.094;5.232;2022-12-18T02:15:19;78.11;;;50.9;;
63953;SDS011;50128;52.094;5.232;2022-12-18T02:17:03;76.41;;;50.8;;
63953;SDS011;50128;52.094;5.232;2022-12-18T02:18:47;81.0;;;52.2;;
63953;SDS011;50128;52.094;5.232;2022-12-18T02:22:16;77.8;;;50.2;;
63953;SDS011;50128;52.094;5.232;2022-12-18T02:24:10;79.11;;;52.4;;
63953;SDS011;50128;52.094;5.232;2022-12-18T02:26:02;76.5;;;50.2;;
63953;SDS011;50128;52.094;5.232;2022-12-18T02:27:47;73.91;;;49.4;;
63953;SDS011;50128;52.094;5.232;2022-12-18T02:29:27;76.91;;;50.4;;
63953;SDS011;50128;52.094;5.232;2022-12-18T02:31:10;75.5;;;50.4;;
63953;SDS011;50128;52.094;5.232;2022-12-18T02:34:31;77.7;;;50.8;;
63953;SDS011;50128;52.094;5.232;2022-12-18T02:36:13;74.61;;;49.8;;
63953;SDS011;50128;52.094;5.232;2022-12-18T02:37:52;73.0;;;49.5;;
63953;SDS011;50128;52.094;5.232;2022-12-18T02:39:29;78.3;;;49.6;;
63953;SDS011;50128;52.094;5.232;2022-12-18T02:42:45;82.8;;;53.0;;
63953;SDS011;50128;52.094;5.232;2022-12-18T02:44:22;77.61;;;51.5;;
63953;SDS011;50128;52.094;5.232;2022-12-18T02:45:58;71.8;;;48.7;;
63953;SDS011;50128;52.094;5.232;2022-12-18T02:47:56;75.11;;;50.3;;
63953;SDS011;50128;52.094;5.232;2022-12-18T02:51:21;77.3;;;49.7;;
63953;SDS011;50128;52.094;5.232;2022-12-18T02:54:55;78.8;;;51.2;;
63953;SDS011;50128;52.094;5.232;2022-12-18T02:56:41;71.91;;;49.6;;
63953;SDS011;50128;52.094;5.232;2022-12-18T02:58:27;76.7;;;50.6;;
63953;SDS011;50128;52.094;5.232;2022-12-18T03:01:51;75.5;;;49.8;;
63953;SDS011;50128;52.094;5.232;2022-12-18T03:03:35;73.3;;;49.0;;
63953;SDS011;50128;52.094;5.232;2022-12-18T03:05:16;73.91;;;49.9;;
63953;SDS011;50128;52.094;5.232;2022-12-18T03:06:59;72.0;;;48.6;;
63953;SDS011;50128;52.094;5.232;2022-12-18T03:10:24;73.8;;;49.7;;
63953;SDS011;50128;52.094;5.232;2022-12-18T03:12:06;78.61;;;51.5;;
63953;SDS011;50128;52.094;5.232;2022-12-18T03:13:51;74.5;;;49.7;;
63953;SDS011;50128;52.094;5.232;2022-12-18T03:15:34;74.11;;;50.4;;
63953;SDS011;50128;52.094;5.232;2022-12-18T03:17:14;72.11;;;49.5;;
63953;SDS011;50128;52.094;5.232;2022-12-18T03:20:37;77.11;;;51.4;;
63953;SDS011;50128;52.094;5.232;2022-12-18T03:22:19;72.8;;;48.6;;
63953;SDS011;50128;52.094;5.232;2022-12-18T03:23:59;76.2;;;50.4;;
63953;SDS011;50128;52.094;5.232;2022-12-18T03:25:38;74.7;;;50.3;;
63953;SDS011;50128;52.094;5.232;2022-12-18T03:28:59;69.91;;;48.2;;
63953;SDS011;50128;52.094;5.232;2022-12-18T03:30:43;65.0;;;46.0;;
63953;SDS011;50128;52.094;5.232;2022-12-18T03:32:23;70.7;;;48.3;;
63953;SDS011;50128;52.094;5.232;2022-12-18T03:34:05;75.11;;;50.0;;
63953;SDS011;50128;52.094;5.232;2022-12-18T03:37:25;72.2;;;49.1;;
63953;SDS011;50128;52.094;5.232;2022-12-18T03:39:02;71.11;;;47.5;;
63953;SDS011;50128;52.094;5.232;2022-12-18T03:40:50;70.5;;;48.4;;
63953;SDS011;50128;52.094;5.232;2022-12-18T03:42:37;71.61;;;48.4;;
63953;SDS011;50128;52.094;5.232;2022-12-18T03:46:08;68.0;;;48.4;;
63953;SDS011;50128;52.094;5.232;2022-12-18T03:47:53;70.3;;;47.4;;
63953;SDS011;50128;52.094;5.232;2022-12-18T03:49:38;70.2;;;48.6;;
63953;SDS011;50128;52.094;5.232;2022-12-18T03:51:23;67.2;;;46.3;;
63953;SDS011;50128;52.094;5.232;2022-12-18T03:53:09;63.2;;;44.0;;
63953;SDS011;50128;52.094;5.232;2022-12-18T03:54:54;65.6;;;45.7;;
63953;SDS011;50128;52.094;5.232;2022-12-18T03:58:17;67.7;;;46.9;;
63953;SDS011;50128;52.094;5.232;2022-12-18T03:59:57;62.9;;;43.3;;
63953;SDS011;50128;52.094;5.232;2022-12-18T04:01:38;63.5;;;44.4;;
63953;SDS011;50128;52.094;5.232;2022-12-18T04:03:18;66.1;;;45.4;;
63953;SDS011;50128;52.094;5.232;2022-12-18T04:06:38;65.8;;;43.6;;
63953;SDS011;50128;52.094;5.232;2022-12-18T04:08:16;61.4;;;43.5;;
63953;SDS011;50128;52.094;5.232;2022-12-18T04:09:53;61.5;;;42.6;;
63953;SDS011;50128;52.094;5.232;2022-12-18T04:11:32;63.0;;;42.8;;
63953;SDS011;50128;52.094;5.232;2022-12-18T04:14:44;58.5;;;41.4;;
63953;SDS011;50128;52.094;5.232;2022-12-18T04:16:21;60.9;;;42.7;;
63953;SDS011;50128;52.094;5.232;2022-12-18T04:17:57;56.6;;;39.71;;
63953;SDS011;50128;52.094;5.232;2022-12-18T04:21:09;60.4;;;41.6;;
63953;SDS011;50128;52.094;5.232;2022-12-18T04:22:47;54.2;;;39.4;;
63953;SDS011;50128;52.094;5.232;2022-12-18T04:24:24;56.0;;;40.1;;
63953;SDS011;50128;52.094;5.232;2022-12-18T04:27:36;57.4;;;40.71;;
63953;SDS011;50128;52.094;5.232;2022-12-18T04:29:12;52.2;;;37.71;;
63953;SDS011;50128;52.094;5.232;2022-12-18T04:30:48;56.8;;;39.9;;
63953;SDS011;50128;52.094;5.232;2022-12-18T04:32:24;51.4;;;36.81;;
63953;SDS011;50128;52.094;5.232;2022-12-18T04:35:37;50.2;;;36.81;;
63953;SDS011;50128;52.094;5.232;2022-12-18T04:37:13;51.6;;;36.71;;
63953;SDS011;50128;52.094;5.232;2022-12-18T04:38:49;48.8;;;36.21;;
63953;SDS011;50128;52.094;5.232;2022-12-18T04:42:02;49.8;;;36.21;;
63953;SDS011;50128;52.094;5.232;2022-12-18T04:43:38;49.1;;;35.9;;
63953;SDS011;50128;52.094;5.232;2022-12-18T04:45:14;46.9;;;34.4;;
63953;SDS011;50128;52.094;5.232;2022-12-18T04:48:26;46.9;;;33.5;;
63953;SDS011;50128;52.094;5.232;2022-12-18T04:50:03;47.4;;;33.4;;
63953;SDS011;50128;52.094;5.232;2022-12-18T04:51:40;44.9;;;33.3;;
63953;SDS011;50128;52.094;5.232;2022-12-18T04:54:52;44.6;;;33.4;;
63953;SDS011;50128;52.094;5.232;2022-12-18T04:56:29;45.5;;;33.6;;
63953;SDS011;50128;52.094;5.232;2022-12-18T04:58:07;42.6;;;31.7;;
63953;SDS011;50128;52.094;5.232;2022-12-18T04:59:43;45.7;;;32.3;;
63953;SDS011;50128;52.094;5.232;2022-12-18T05:02:55;44.8;;;33.1;;
63953;SDS011;50128;52.094;5.232;2022-12-18T05:04:31;46.0;;;32.8;;
63953;SDS011;50128;52.094;5.232;2022-12-18T05:06:08;43.8;;;31.6;;
63953;SDS011;50128;52.094;5.232;2022-12-18T05:09:21;37.6;;;28.7;;
63953;SDS011;50128;52.094;5.232;2022-12-18T05:10:59;38.0;;;29.7;;
63953;SDS011;50128;52.094;5.232;2022-12-18T05:12:36;36.1;;;27.6;;
63953;SDS011;50128;52.094;5.232;2022-12-18T05:15:51;35.5;;;27.6;;
63953;SDS011;50128;52.094;5.232;2022-12-18T05:19:04;35.0;;;26.2;;
63953;SDS011;50128;52.094;5.232;2022-12-18T05:20:40;39.0;;;27.8;;
63953;SDS011;50128;52.094;5.232;2022-12-18T05:23:53;35.1;;;26.9;;
63953;SDS011;50128;52.094;5.232;2022-12-18T05:25:29;36.0;;;27.0;;
63953;SDS011;50128;52.094;5.232;2022-12-18T05:27:05;31.7;;;25.8;;
63953;SDS011;50128;52.094;5.232;2022-12-18T05:30:18;35.6;;;27.0;;
63953;SDS011;50128;52.094;5.232;2022-12-18T05:31:54;35.6;;;26.4;;
63953;SDS011;50128;52.094;5.232;2022-12-18T05:33:31;35.0;;;27.6;;
63953;SDS011;50128;52.094;5.232;2022-12-18T05:36:47;33.8;;;26.1;;
63953;SDS011;50128;52.094;5.232;2022-12-18T05:38:24;33.9;;;25.2;;
63953;SDS011;50128;52.094;5.232;2022-12-18T05:40:02;35.21;;;26.6;;
63953;SDS011;50128;52.094;5.232;2022-12-18T05:41:40;33.4;;;26.9;;
63953;SDS011;50128;52.094;5.232;2022-12-18T05:44:53;33.71;;;25.9;;
63953;SDS011;50128;52.094;5.232;2022-12-18T05:46:29;33.71;;;25.7;;
63953;SDS011;50128;52.094;5.232;2022-12-18T05:48:06;33.21;;;25.2;;
63953;SDS011;50128;52.094;5.232;2022-12-18T05:51:20;34.0;;;25.8;;
63953;SDS011;50128;52.094;5.232;2022-12-18T05:52:57;32.4;;;24.8;;
63953;SDS011;50128;52.094;5.232;2022-12-18T05:54:33;34.0;;;25.6;;
63953;SDS011;50128;52.094;5.232;2022-12-18T05:56:11;35.21;;;26.3;;
63953;SDS011;50128;52.094;5.232;2022-12-18T05:59:26;32.6;;;25.4;;
63953;SDS011;50128;52.094;5.232;2022-12-18T06:01:07;31.3;;;24.9;;
63953;SDS011;50128;52.094;5.232;2022-12-18T06:02:46;31.4;;;24.7;;
63953;SDS011;50128;52.094;5.232;2022-12-18T06:05:59;32.5;;;24.6;;
63953;SDS011;50128;52.094;5.232;2022-12-18T06:07:35;31.5;;;24.4;;
63953;SDS011;50128;52.094;5.232;2022-12-18T06:09:11;32.21;;;24.3;;
63953;SDS011;50128;52.094;5.232;2022-12-18T06:10:49;32.71;;;25.0;;
63953;SDS011;50128;52.094;5.232;2022-12-18T06:14:03;33.3;;;25.3;;
63953;SDS011;50128;52.094;5.232;2022-12-18T06:15:41;31.5;;;24.5;;
63953;SDS011;50128;52.094;5.232;2022-12-18T06:17:17;29.2;;;24.2;;
63953;SDS011;50128;52.094;5.232;2022-12-18T06:20:32;31.4;;;24.7;;
63953;SDS011;50128;52.094;5.232;2022-12-18T06:22:08;30.7;;;23.9;;
63953;SDS011;50128;52.094;5.232;2022-12-18T06:25:20;31.2;;;24.2;;
63953;SDS011;50128;52.094;5.232;2022-12-18T06:26:56;32.4;;;25.6;;
63953;SDS011;50128;52.094;5.232;2022-12-18T06:28:32;31.5;;;24.7;;
63953;SDS011;50128;52.094;5.232;2022-12-18T06:30:09;29.0;;;23.1;;
63953;SDS011;50128;52.094;5.232;2022-12-18T06:31:46;28.0;;;22.5;;
63953;SDS011;50128;52.094;5.232;2022-12-18T06:35:02;31.0;;;23.6;;
63953;SDS011;50128;52.094;5.232;2022-12-18T06:36:39;28.8;;;23.9;;
63953;SDS011;50128;52.094;5.232;2022-12-18T06:38:16;27.1;;;22.1;;
63953;SDS011;50128;52.094;5.232;2022-12-18T06:41:28;29.1;;;23.1;;
63953;SDS011;50128;52.094;5.232;2022-12-18T06:43:04;28.9;;;23.2;;
63953;SDS011;50128;52.094;5.232;2022-12-18T06:44:41;28.8;;;23.1;;
63953;SDS011;50128;52.094;5.232;2022-12-18T06:46:18;28.1;;;23.2;;
63953;SDS011;50128;52.094;5.232;2022-12-18T06:49:31;26.8;;;21.6;;
63953;SDS011;50128;52.094;5.232;2022-12-18T06:51:07;28.1;;;23.1;;
63953;SDS011;50128;52.094;5.232;2022-12-18T06:52:43;28.1;;;23.1;;
63953;SDS011;50128;52.094;5.232;2022-12-18T06:55:59;28.1;;;23.0;;
63953;SDS011;50128;52.094;5.232;2022-12-18T06:57:36;29.2;;;23.1;;
63953;SDS011;50128;52.094;5.232;2022-12-18T06:59:13;26.8;;;21.9;;
63953;SDS011;50128;52.094;5.232;2022-12-18T07:02:26;25.7;;;21.8;;
63953;SDS011;50128;52.094;5.232;2022-12-18T07:04:03;27.3;;;21.6;;
63953;SDS011;50128;52.094;5.232;2022-12-18T07:05:39;27.5;;;21.6;;
63953;SDS011;50128;52.094;5.232;2022-12-18T07:07:16;26.5;;;22.0;;
63953;SDS011;50128;52.094;5.232;2022-12-18T07:10:30;25.8;;;21.6;;
63953;SDS011;50128;52.094;5.232;2022-12-18T07:12:07;26.7;;;21.7;;
63953;SDS011;50128;52.094;5.232;2022-12-18T07:13:43;27.6;;;21.3;;
63953;SDS011;50128;52.094;5.232;2022-12-18T07:16:56;25.4;;;20.6;;
63953;SDS011;50128;52.094;5.232;2022-12-18T07:18:32;25.2;;;21.5;;
63953;SDS011;50128;52.094;5.232;2022-12-18T07:20:09;26.3;;;21.7;;
63953;SDS011;50128;52.094;5.232;2022-12-18T07:23:22;28.5;;;21.9;;
63953;SDS011;50128;52.094;5.232;2022-12-18T07:24:58;27.1;;;21.8;;
63953;SDS011;50128;52.094;5.232;2022-12-18T07:26:34;26.6;;;22.4;;
63953;SDS011;50128;52.094;5.232;2022-12-18T07:28:11;29.6;;;22.3;;
63953;SDS011;50128;52.094;5.232;2022-12-18T07:31:23;27.3;;;21.9;;
63953;SDS011;50128;52.094;5.232;2022-12-18T07:33:00;26.1;;;21.7;;
63953;SDS011;50128;52.094;5.232;2022-12-18T07:34:36;26.9;;;21.6;;
63953;SDS011;50128;52.094;5.232;2022-12-18T07:37:50;25.7;;;21.6;;
63953;SDS011;50128;52.094;5.232;2022-12-18T07:39:26;24.9;;;21.3;;
63953;SDS011;50128;52.094;5.232;2022-12-18T07:41:03;26.5;;;21.6;;
63953;SDS011;50128;52.094;5.232;2022-12-18T07:44:17;25.1;;;21.0;;
63953;SDS011;50128;52.094;5.232;2022-12-18T07:45:54;28.3;;;23.1;;
63953;SDS011;50128;52.094;5.232;2022-12-18T07:47:33;25.7;;;21.8;;
63953;SDS011;50128;52.094;5.232;2022-12-18T07:52:22;29.1;;;23.9;;
63953;SDS011;50128;52.094;5.232;2022-12-18T07:53:59;26.5;;;22.0;;
63953;SDS011;50128;52.094;5.232;2022-12-18T07:55:35;27.8;;;22.0;;
63953;SDS011;50128;52.094;5.232;2022-12-18T07:58:47;25.0;;;21.2;;
63953;SDS011;50128;52.094;5.232;2022-12-18T08:00:24;26.2;;;21.0;;
63953;SDS011;50128;52.094;5.232;2022-12-18T08:02:00;25.6;;;21.3;;
63953;SDS011;50128;52.094;5.232;2022-12-18T08:05:14;27.6;;;21.5;;
63953;SDS011;50128;52.094;5.232;2022-12-18T08:06:50;25.9;;;21.9;;
63953;SDS011;50128;52.094;5.232;2022-12-18T08:08:27;25.6;;;21.1;;
63953;SDS011;50128;52.094;5.232;2022-12-18T08:10:04;24.8;;;20.7;;
63953;SDS011;50128;52.094;5.232;2022-12-18T08:13:18;24.2;;;21.1;;
63953;SDS011;50128;52.094;5.232;2022-12-18T08:14:54;26.1;;;20.9;;
63953;SDS011;50128;52.094;5.232;2022-12-18T08:16:31;24.3;;;20.11;;
63953;SDS011;50128;52.094;5.232;2022-12-18T08:19:43;24.1;;;20.7;;
63953;SDS011;50128;52.094;5.232;2022-12-18T08:21:20;25.7;;;20.8;;
63953;SDS011;50128;52.094;5.232;2022-12-18T08:22:58;25.2;;;20.41;;
63953;SDS011;50128;52.094;5.232;2022-12-18T08:26:10;26.1;;;20.41;;
63953;SDS011;50128;52.094;5.232;2022-12-18T08:27:47;23.3;;;19.41;;
63953;SDS011;50128;52.094;5.232;2022-12-18T08:29:23;23.8;;;19.8;;
63953;SDS011;50128;52.094;5.232;2022-12-18T08:31:00;23.0;;;19.8;;
63953;SDS011;50128;52.094;5.232;2022-12-18T08:34:11;23.2;;;19.5;;
63953;SDS011;50128;52.094;5.232;2022-12-18T08:35:47;26.6;;;21.1;;
63953;SDS011;50128;52.094;5.232;2022-12-18T08:37:24;24.3;;;20.41;;
63953;SDS011;50128;52.094;5.232;2022-12-18T08:40:36;24.8;;;19.5;;
63953;SDS011;50128;52.094;5.232;2022-12-18T08:42:12;23.4;;;19.3;;
63953;SDS011;50128;52.094;5.232;2022-12-18T08:43:48;24.5;;;20.5;;
63953;SDS011;50128;52.094;5.232;2022-12-18T08:47:01;25.2;;;20.6;;
63953;SDS011;50128;52.094;5.232;2022-12-18T08:48:37;23.5;;;19.5;;
63953;SDS011;50128;52.094;5.232;2022-12-18T08:50:14;24.4;;;20.0;;
63953;SDS011;50128;52.094;5.232;2022-12-18T08:51:53;22.4;;;19.11;;
63953;SDS011;50128;52.094;5.232;2022-12-18T08:55:07;23.4;;;20.11;;
63953;SDS011;50128;52.094;5.232;2022-12-18T08:56:44;24.5;;;19.91;;
63953;SDS011;50128;52.094;5.232;2022-12-18T08:58:20;24.6;;;20.3;;
63953;SDS011;50128;52.094;5.232;2022-12-18T09:01:33;23.7;;;19.91;;
63953;SDS011;50128;52.094;5.232;2022-12-18T09:03:10;23.1;;;19.41;;
63953;SDS011;50128;52.094;5.232;2022-12-18T09:04:47;24.3;;;19.91;;
63953;SDS011;50128;52.094;5.232;2022-12-18T09:08:00;24.3;;;20.2;;
63953;SDS011;50128;52.094;5.232;2022-12-18T09:09:36;23.0;;;19.2;;
63953;SDS011;50128;52.094;5.232;2022-12-18T09:11:14;24.3;;;20.0;;
63953;SDS011;50128;52.094;5.232;2022-12-18T09:12:53;23.1;;;19.2;;
63953;SDS011;50128;52.094;5.232;2022-12-18T09:16:06;24.1;;;19.8;;
63953;SDS011;50128;52.094;5.232;2022-12-18T09:17:43;24.6;;;19.5;;
63953;SDS011;50128;52.094;5.232;2022-12-18T09:19:19;24.1;;;20.11;;
63953;SDS011;50128;52.094;5.232;2022-12-18T09:22:31;23.2;;;19.3;;
63953;SDS011;50128;52.094;5.232;2022-12-18T09:24:08;23.7;;;19.5;;
63953;SDS011;50128;52.094;5.232;2022-12-18T09:25:48;25.0;;;19.91;;
63953;SDS011;50128;52.094;5.232;2022-12-18T09:27:25;23.0;;;19.11;;
63953;SDS011;50128;52.094;5.232;2022-12-18T09:30:39;22.9;;;19.0;;
63953;SDS011;50128;52.094;5.232;2022-12-18T09:32:16;24.4;;;19.0;;
63953;SDS011;50128;52.094;5.232;2022-12-18T09:33:54;22.3;;;18.7;;
63953;SDS011;50128;52.094;5.232;2022-12-18T09:37:07;23.0;;;19.2;;
63953;SDS011;50128;52.094;5.232;2022-12-18T09:38:43;23.0;;;19.5;;
63953;SDS011;50128;52.094;5.232;2022-12-18T09:40:21;23.7;;;19.11;;
63953;SDS011;50128;52.094;5.232;2022-12-18T09:42:01;22.5;;;18.7;;
63953;SDS011;50128;52.094;5.232;2022-12-18T09:45:21;22.7;;;19.11;;
63953;SDS011;50128;52.094;5.232;2022-12-18T09:47:02;21.5;;;18.5;;
63953;SDS011;50128;52.094;5.232;2022-12-18T09:48:46;22.6;;;19.11;;
63953;SDS011;50128;52.094;5.232;2022-12-18T09:50:27;22.2;;;19.11;;
63953;SDS011;50128;52.094;5.232;2022-12-18T09:53:52;23.5;;;19.2;;
63953;SDS011;50128;52.094;5.232;2022-12-18T09:55:34;21.3;;;17.91;;
63953;SDS011;50128;52.094;5.232;2022-12-18T09:57:14;25.3;;;20.9;;
63953;SDS011;50128;52.094;5.232;2022-12-18T09:58:55;22.9;;;18.61;;
63953;SDS011;50128;52.094;5.232;2022-12-18T10:02:12;24.2;;;20.8;;
63953;SDS011;50128;52.094;5.232;2022-12-18T10:03:52;23.4;;;19.41;;
63953;SDS011;50128;52.094;5.232;2022-12-18T10:05:33;23.3;;;18.8;;
63953;SDS011;50128;52.094;5.232;2022-12-18T10:07:23;23.2;;;19.8;;
63953;SDS011;50128;52.094;5.232;2022-12-18T10:10:57;22.4;;;18.8;;
63953;SDS011;50128;52.094;5.232;2022-12-18T10:12:45;26.4;;;18.11;;
63953;SDS011;50128;52.094;5.232;2022-12-18T10:14:33;24.6;;;19.3;;
63953;SDS011;50128;52.094;5.232;2022-12-18T10:16:17;22.3;;;18.7;;
63953;SDS011;50128;52.094;5.232;2022-12-18T10:18:03;22.7;;;18.5;;
63953;SDS011;50128;52.094;5.232;2022-12-18T10:19:58;22.3;;;18.61;;
63953;SDS011;50128;52.094;5.232;2022-12-18T10:23:25;23.1;;;18.61;;
63953;SDS011;50128;52.094;5.232;2022-12-18T10:25:14;23.0;;;18.61;;
63953;SDS011;50128;52.094;5.232;2022-12-18T10:26:56;21.3;;;18.41;;
63953;SDS011;50128;52.094;5.232;2022-12-18T10:28:45;21.8;;;18.7;;
63953;SDS011;50128;52.094;5.232;2022-12-18T10:30:23;23.5;;;18.8;;
63953;SDS011;50128;52.094;5.232;2022-12-18T10:33:38;23.0;;;18.3;;
63953;SDS011;50128;52.094;5.232;2022-12-18T10:35:15;21.6;;;18.2;;
63953;SDS011;50128;52.094;5.232;2022-12-18T10:36:55;20.41;;;17.5;;
63953;SDS011;50128;52.094;5.232;2022-12-18T10:38:32;20.6;;;18.0;;
63953;SDS011;50128;52.094;5.232;2022-12-18T10:41:49;22.8;;;18.7;;
63953;SDS011;50128;52.094;5.232;2022-12-18T10:43:25;22.6;;;18.3;;
63953;SDS011;50128;52.094;5.232;2022-12-18T10:45:11;21.2;;;17.7;;
63953;SDS011;50128;52.094;5.232;2022-12-18T10:48:30;22.9;;;18.7;;
63953;SDS011;50128;52.094;5.232;2022-12-18T10:50:10;20.9;;;17.5;;
63953;SDS011;50128;52.094;5.232;2022-12-18T10:52:04;21.3;;;17.0;;
63953;SDS011;50128;52.094;5.232;2022-12-18T10:53:44;21.9;;;17.3;;
63953;SDS011;50128;52.094;5.232;2022-12-18T10:55:31;21.2;;;17.5;;
63953;SDS011;50128;52.094;5.232;2022-12-18T10:59:07;20.5;;;16.9;;
63953;SDS011;50128;52.094;5.232;2022-12-18T11:00:47;22.3;;;17.7;;
63953;SDS011;50128;52.094;5.232;2022-12-18T11:02:39;21.4;;;17.41;;
63953;SDS011;50128;52.094;5.232;2022-12-18T11:04:16;22.1;;;18.3;;
63953;SDS011;50128;52.094;5.232;2022-12-18T11:06:01;21.7;;;17.7;;
63953;SDS011;50128;52.094;5.232;2022-12-18T11:09:24;21.3;;;16.9;;
63953;SDS011;50128;52.094;5.232;2022-12-18T11:11:02;19.61;;;16.11;;
63953;SDS011;50128;52.094;5.232;2022-12-18T11:12:43;20.5;;;16.5;;
63953;SDS011;50128;52.094;5.232;2022-12-18T11:14:21;21.5;;;16.61;;
63953;SDS011;50128;52.094;5.232;2022-12-18T11:17:36;20.9;;;17.0;;
63953;SDS011;50128;52.094;5.232;2022-12-18T11:19:17;22.0;;;17.3;;
63953;SDS011;50128;52.094;5.232;2022-12-18T11:21:01;21.4;;;16.8;;
63953;SDS011;50128;52.094;5.232;2022-12-18T11:22:44;21.0;;;17.7;;
63953;SDS011;50128;52.094;5.232;2022-12-18T11:24:32;20.9;;;16.61;;
63953;SDS011;50128;52.094;5.232;2022-12-18T11:27:50;20.6;;;16.9;;
63953;SDS011;50128;52.094;5.232;2022-12-18T11:29:33;20.6;;;16.9;;
63953;SDS011;50128;52.094;5.232;2022-12-18T11:31:22;21.2;;;17.0;;
63953;SDS011;50128;52.094;5.232;2022-12-18T11:33:03;21.1;;;17.7;;
63953;SDS011;50128;52.094;5.232;2022-12-18T11:36:23;21.1;;;17.7;;
63953;SDS011;50128;52.094;5.232;2022-12-18T11:38:02;20.9;;;17.11;;
63953;SDS011;50128;52.094;5.232;2022-12-18T11:39:49;20.9;;;16.61;;
63953;SDS011;50128;52.094;5.232;2022-12-18T11:41:32;21.4;;;16.9;;
63953;SDS011;50128;52.094;5.232;2022-12-18T11:45:02;20.0;;;16.3;;
63953;SDS011;50128;52.094;5.232;2022-12-18T11:46:58;20.3;;;17.0;;
63953;SDS011;50128;52.094;5.232;2022-12-18T11:48:39;20.2;;;16.7;;
63953;SDS011;50128;52.094;5.232;2022-12-18T11:50:23;21.8;;;17.3;;
63953;SDS011;50128;52.094;5.232;2022-12-18T11:52:07;24.2;;;19.41;;
63953;SDS011;50128;52.094;5.232;2022-12-18T11:53:51;20.11;;;17.11;;
63953;SDS011;50128;52.094;5.232;2022-12-18T11:57:26;22.6;;;18.41;;
63953;SDS011;50128;52.094;5.232;2022-12-18T11:59:13;22.5;;;18.5;;
63953;SDS011;50128;52.094;5.232;2022-12-18T12:01:01;21.7;;;18.2;;
63953;SDS011;50128;52.094;5.232;2022-12-18T12:03:01;21.3;;;17.8;;
63953;SDS011;50128;52.094;5.232;2022-12-18T12:06:36;23.0;;;18.5;;
63953;SDS011;50128;52.094;5.232;2022-12-18T12:10:16;23.8;;;19.2;;
63953;SDS011;50128;52.094;5.232;2022-12-18T12:12:10;25.9;;;21.3;;
63953;SDS011;50128;52.094;5.232;2022-12-18T12:14:13;25.0;;;20.11;;
63953;SDS011;50128;52.094;5.232;2022-12-18T12:16:11;23.6;;;19.0;;
63953;SDS011;50128;52.094;5.232;2022-12-18T12:17:54;21.4;;;17.8;;
63953;SDS011;50128;52.094;5.232;2022-12-18T12:19:43;22.7;;;17.91;;
63953;SDS011;50128;52.094;5.232;2022-12-18T12:21:28;21.4;;;17.8;;
63953;SDS011;50128;52.094;5.232;2022-12-18T12:23:18;20.6;;;17.41;;
63953;SDS011;50128;52.094;5.232;2022-12-18T12:27:00;20.6;;;17.41;;
63953;SDS011;50128;52.094;5.232;2022-12-18T12:28:50;23.1;;;19.2;;
63953;SDS011;50128;52.094;5.232;2022-12-18T12:30:43;24.5;;;21.2;;
63953;SDS011;50128;52.094;5.232;2022-12-18T12:32:37;24.5;;;21.2;;
63953;SDS011;50128;52.094;5.232;2022-12-18T12:34:26;20.8;;;17.41;;
63953;SDS011;50128;52.094;5.232;2022-12-18T12:36:11;23.8;;;20.11;;
63953;SDS011;50128;52.094;5.232;2022-12-18T12:38:01;24.9;;;20.9;;
63953;SDS011;50128;52.094;5.232;2022-12-18T12:41:23;23.4;;;19.2;;
63953;SDS011;50128;52.094;5.232;2022-12-18T12:43:03;22.1;;;18.3;;